Time;durP1;ratioP1;P1;durP2;ratioP2;P2;SDS_P1;SDS_P2;PMS_P1;PMS_P2;Temp;Humidity;BMP_temperature;BMP_pressure;BME280_temperature;BME280_humidity;BME280_pressure;Samples;Min_cycle;Max_cycle;Signal;HPM_P1;HPM_P2
2023/03/10 00:00:11;;;;;;;;;10.00;7.75;;;;;2.10;86.58;98828.91;4991516;28;11719;-66
2023/03/10 00:02:43;;;;;;;;;7.00;7.00;;;;;2.09;86.55;98834.41;5002353;28;11551;-67
2023/03/10 00:05:10;;;;;;;;;6.75;5.00;;;;;2.11;86.61;98827.09;5025177;28;11546;-68
2023/03/10 00:07:36;;;;;;;;;5.25;4.25;;;;;2.17;87.03;98821.00;5017878;28;11535;-68
2023/03/10 00:10:03;;;;;;;;;8.00;8.00;;;;;2.18;86.75;98814.69;4990453;28;11554;-68
2023/03/10 00:12:33;;;;;;;;;7.00;7.00;;;;;2.19;86.29;98811.84;4996268;28;11544;-68
2023/03/10 00:14:59;;;;;;;;;9.00;5.00;;;;;2.21;86.75;98814.31;5004121;28;11603;-67
2023/03/10 00:17:26;;;;;;;;;4.75;4.75;;;;;2.24;86.82;98811.28;4996741;28;11588;-66
2023/03/10 00:19:53;;;;;;;;;10.25;7.00;;;;;2.21;86.68;98820.44;5001155;28;11589;-67
2023/03/10 00:22:19;;;;;;;;;4.00;4.00;;;;;2.20;86.45;98818.00;4992775;28;11545;-68
2023/03/10 00:24:46;;;;;;;;;9.75;7.00;;;;;2.19;86.22;98808.38;4989323;28;11532;-65
2023/03/10 00:27:13;;;;;;;;;8.25;7.75;;;;;2.16;86.25;98824.69;4996082;28;11685;-67
2023/03/10 00:29:40;;;;;;;;;4.25;3.75;;;;;2.15;86.52;98831.00;5007804;28;11534;-68
2023/03/10 00:32:07;;;;;;;;;11.00;7.75;;;;;2.17;86.41;98834.28;5005963;28;11558;-65
2023/03/10 00:34:34;;;;;;;;;8.75;7.75;;;;;2.22;86.72;98827.38;4968930;28;1021995;-65
2023/03/10 00:37:00;;;;;;;;;5.00;5.00;;;;;2.23;86.52;98818.44;4991467;28;12919;-66
2023/03/10 00:39:27;;;;;;;;;8.25;7.50;;;;;2.28;86.66;98828.47;5005427;28;11550;-66
2023/03/10 00:41:53;;;;;;;;;10.00;7.00;;;;;2.30;87.14;98825.63;5020303;28;11643;-68
2023/03/10 00:44:21;;;;;;;;;8.00;7.00;;;;;2.31;86.60;98828.09;5011540;28;11618;-67
2023/03/10 00:46:48;;;;;;;;;4.50;3.00;;;;;2.31;86.28;98822.78;5002129;28;11513;-67
2023/03/10 00:49:15;;;;;;;;;8.75;6.00;;;;;2.36;86.87;98820.38;5007575;28;11535;-66
2023/03/10 00:51:41;;;;;;;;;5.25;4.00;;;;;2.37;86.32;98819.34;5007265;28;11581;-67
2023/03/10 00:54:09;;;;;;;;;7.50;7.00;;;;;2.35;86.37;98816.09;4990164;28;11657;-67
2023/03/10 00:56:35;;;;;;;;;4.50;4.00;;;;;2.41;86.40;98817.16;5000622;28;11752;-67
2023/03/10 00:59:02;;;;;;;;;8.00;6.50;;;;;2.40;85.96;98820.81;5006584;28;11712;-67
2023/03/10 01:01:32;;;;;;;;;5.50;4.00;;;;;2.41;86.18;98817.97;5005538;28;11514;-68
2023/03/10 01:04:03;;;;;;;;;7.75;4.00;;;;;2.37;85.76;98814.03;5006260;28;11532;-63
2023/03/10 01:06:30;;;;;;;;;4.00;4.00;;;;;2.37;86.00;98808.75;5008509;28;11600;-67
2023/03/10 01:08:57;;;;;;;;;7.50;7.00;;;;;2.39;86.24;98800.56;5001587;28;12212;-70
2023/03/10 01:11:27;;;;;;;;;5.00;5.00;;;;;2.40;86.12;98797.75;5014502;28;11543;-66
2023/03/10 01:13:57;;;;;;;;;10.25;5.00;;;;;2.39;86.18;98782.84;4992695;28;12278;-67
2023/03/10 01:16:26;;;;;;;;;7.00;4.25;;;;;2.44;86.72;98779.59;5000057;28;11517;-70
2023/03/10 01:18:55;;;;;;;;;8.00;6.25;;;;;2.39;85.77;98781.97;5008307;28;11628;-68
2023/03/10 01:21:33;;;;;;;;;5.50;5.50;;;;;2.31;85.12;98771.50;5000928;28;11577;-65
2023/03/10 01:24:00;;;;;;;;;10.00;6.50;;;;;2.22;85.50;98776.13;5007987;28;11512;-65
2023/03/10 01:26:28;;;;;;;;;7.00;7.00;;;;;2.23;86.00;98772.50;5015358;28;11588;-67
2023/03/10 01:28:54;;;;;;;;;5.25;5.25;;;;;2.26;86.80;98774.72;5002055;28;11612;-66
2023/03/10 01:31:21;;;;;;;;;9.50;7.25;;;;;2.33;86.98;98772.97;4997668;28;11627;-66
2023/03/10 01:33:48;;;;;;;;;7.50;6.75;;;;;2.38;86.16;98773.19;4996476;28;11671;-67
2023/03/10 01:36:21;;;;;;;;;4.75;4.00;;;;;2.34;86.01;98766.63;4992465;28;11648;-62
2023/03/10 01:38:48;;;;;;;;;7.00;6.50;;;;;2.34;85.82;98761.31;5018195;28;11516;-65
2023/03/10 01:41:16;;;;;;;;;7.00;7.00;;;;;2.33;86.46;98765.00;5010309;28;11521;-68
2023/03/10 01:43:44;;;;;;;;;7.50;6.00;;;;;2.39;86.70;98760.75;5001592;28;11538;-65
2023/03/10 01:46:34;;;;;;;;;6.50;3.50;;;;;2.47;86.63;98764.09;4998849;28;11591;-67
2023/03/10 01:49:12;;;;;;;;;7.25;7.00;;;;;2.43;86.00;98754.88;5002481;28;12241;-67
2023/03/10 01:51:44;;;;;;;;;4.25;4.25;;;;;2.39;85.81;98752.78;5007861;28;11540;-66
2023/03/10 01:54:17;;;;;;;;;6.25;4.50;;;;;2.37;86.30;98760.94;5020152;28;11562;-67
2023/03/10 01:56:46;;;;;;;;;9.00;7.00;;;;;2.34;86.31;98752.53;5009492;28;11650;-68
2023/03/10 01:59:13;;;;;;;;;7.50;7.00;;;;;2.40;86.24;98760.56;4997747;28;12181;-68
2023/03/10 02:01:39;;;;;;;;;9.75;8.50;;;;;2.36;85.47;98755.84;4993134;28;11518;-67
2023/03/10 02:04:26;;;;;;;;;10.25;7.00;;;;;2.35;86.18;98749.72;4993200;28;11552;-66
2023/03/10 02:06:55;;;;;;;;;6.50;6.50;;;;;2.36;86.14;98738.06;5028069;28;11586;-65
2023/03/10 02:09:23;;;;;;;;;9.75;7.00;;;;;2.35;85.94;98736.44;5006746;28;12479;-68
2023/03/10 02:11:50;;;;;;;;;11.00;7.25;;;;;2.38;86.46;98738.69;5006530;28;11606;-67
2023/03/10 02:14:17;;;;;;;;;8.75;6.00;;;;;2.35;86.29;98741.75;5006358;28;11562;-68
2023/03/10 02:16:44;;;;;;;;;8.00;7.50;;;;;2.29;86.02;98737.19;4998090;28;11550;-68
2023/03/10 02:19:27;;;;;;;;;12.00;10.00;;;;;2.29;86.37;98734.53;5014392;28;11490;-65
2023/03/10 02:22:06;;;;;;;;;5.25;5.25;;;;;2.33;86.65;98737.63;5008593;28;12246;-67
2023/03/10 02:24:53;;;;;;;;;8.25;7.75;;;;;2.31;85.52;98729.88;5012070;28;11550;-68
2023/03/10 02:27:29;;;;;;;;;7.00;5.00;;;;;2.30;86.26;98733.53;5007245;28;11534;-67
2023/03/10 02:30:07;;;;;;;;;4.00;3.75;;;;;2.30;86.19;98722.09;5018716;28;11513;-68
2023/03/10 02:32:40;;;;;;;;;8.50;8.50;;;;;2.31;86.68;98729.03;5001822;28;11546;-67
2023/03/10 02:35:07;;;;;;;;;8.25;5.00;;;;;2.31;86.71;98724.56;5008323;28;11540;-68
2023/03/10 02:37:41;;;;;;;;;4.75;4.75;;;;;2.32;86.05;98722.72;5008917;28;11544;-68
2023/03/10 02:40:32;;;;;;;;;8.25;6.75;;;;;2.34;86.70;98718.03;5004123;28;11507;-66
2023/03/10 02:43:27;;;;;;;;;7.75;7.75;;;;;2.38;86.77;98720.09;5009998;28;11597;-68
2023/03/10 02:46:03;;;;;;;;;9.50;7.00;;;;;2.45;86.67;98715.66;5019619;28;11523;-68
2023/03/10 02:48:34;;;;;;;;;4.75;4.00;;;;;2.43;86.25;98711.56;5010373;28;11532;-67
2023/03/10 02:51:09;;;;;;;;;8.00;8.00;;;;;2.43;86.38;98714.22;5001681;28;11611;-68
2023/03/10 02:53:36;;;;;;;;;6.75;4.50;;;;;2.41;86.37;98711.75;4991848;28;11550;-68
2023/03/10 02:56:03;;;;;;;;;11.75;11.75;;;;;2.40;85.66;98710.13;4991422;28;11604;-67
2023/03/10 02:58:32;;;;;;;;;5.00;4.00;;;;;2.37;86.24;98715.00;4999100;28;11690;-68
2023/03/10 03:01:00;;;;;;;;;9.75;6.50;;;;;2.35;86.47;98709.03;4997093;28;11579;-67
2023/03/10 03:03:27;;;;;;;;;11.00;6.50;;;;;2.31;86.21;98713.94;5006996;28;11530;-67
2023/03/10 03:05:54;;;;;;;;;8.50;8.50;;;;;2.34;86.42;98715.38;4990208;28;11564;-68
2023/03/10 03:08:20;;;;;;;;;8.00;6.25;;;;;2.26;86.13;98703.06;5004171;28;11572;-68
2023/03/10 03:10:47;;;;;;;;;13.00;8.00;;;;;2.29;86.40;98699.22;5001501;28;11548;-65
2023/03/10 03:13:14;;;;;;;;;5.50;5.00;;;;;2.25;86.34;98693.47;5014381;28;11611;-67
2023/03/10 03:15:41;;;;;;;;;7.25;7.25;;;;;2.26;86.62;98692.44;5006889;28;11535;-68
2023/03/10 03:18:08;;;;;;;;;8.25;7.25;;;;;2.21;86.31;98697.53;5007966;28;11526;-66
2023/03/10 03:20:37;;;;;;;;;10.50;5.00;;;;;2.19;86.98;98694.25;5014427;28;11605;-65
2023/03/10 03:23:04;;;;;;;;;10.00;7.50;;;;;2.19;87.23;98708.34;5002277;28;11558;-67
2023/03/10 03:25:35;;;;;;;;;7.00;7.00;;;;;2.26;87.43;98711.03;5005592;28;11563;-66
2023/03/10 03:28:02;;;;;;;;;7.00;4.00;;;;;2.27;86.97;98715.34;5007594;28;11526;-67
2023/03/10 03:30:29;;;;;;;;;7.00;7.00;;;;;2.28;87.11;98716.16;5013113;28;11524;-67
2023/03/10 03:32:57;;;;;;;;;5.00;4.75;;;;;2.25;87.19;98717.34;5016703;28;11545;-67
2023/03/10 03:35:28;;;;;;;;;13.75;7.00;;;;;2.21;86.72;98714.25;5006183;28;11570;-67
2023/03/10 03:37:56;;;;;;;;;7.25;7.25;;;;;2.15;86.95;98722.19;4999060;28;11670;-67
2023/03/10 03:40:24;;;;;;;;;12.00;8.00;;;;;2.17;87.08;98728.13;5010068;28;12592;-67
2023/03/10 03:42:52;;;;;;;;;12.75;9.75;;;;;2.15;86.77;98722.19;4994946;28;11551;-65
2023/03/10 03:45:23;;;;;;;;;7.00;6.00;;;;;2.10;86.62;98713.97;5015190;28;11534;-65
2023/03/10 03:47:53;;;;;;;;;7.00;7.00;;;;;2.06;87.22;98694.13;5009036;28;12260;-67
2023/03/10 03:50:21;;;;;;;;;6.50;4.50;;;;;2.01;86.88;98693.91;4994707;28;11529;-67
2023/03/10 03:52:49;;;;;;;;;10.75;7.25;;;;;1.98;87.44;98684.47;5014436;28;11505;-68
2023/03/10 03:55:18;;;;;;;;;10.25;9.75;;;;;1.99;87.41;98683.50;5023722;28;11566;-66
2023/03/10 03:57:48;;;;;;;;;8.50;7.00;;;;;2.08;88.05;98687.63;4997425;28;11560;-65
2023/03/10 04:00:21;;;;;;;;;11.00;7.00;;;;;2.08;87.32;98692.94;4997394;28;11582;-67
2023/03/10 04:02:55;;;;;;;;;6.25;4.00;;;;;2.06;87.23;98702.09;5000341;28;11617;-65
2023/03/10 04:05:22;;;;;;;;;8.75;5.75;;;;;2.06;87.09;98704.75;4989102;28;11728;-66
2023/03/10 04:07:49;;;;;;;;;9.75;9.00;;;;;1.98;86.98;98709.19;5009945;28;11717;-67
2023/03/10 04:10:20;;;;;;;;;11.75;6.75;;;;;2.02;86.92;98703.50;5009747;28;11556;-66
2023/03/10 04:12:46;;;;;;;;;7.50;7.00;;;;;2.05;87.10;98705.78;5014876;28;11511;-66
2023/03/10 04:15:13;;;;;;;;;8.25;6.25;;;;;2.01;86.89;98702.69;4999044;28;11516;-67
2023/03/10 04:17:40;;;;;;;;;9.75;5.50;;;;;1.95;87.04;98698.97;5019387;28;11620;-67
2023/03/10 04:20:08;;;;;;;;;8.50;7.00;;;;;1.92;86.72;98691.38;5007795;28;11513;-67
2023/03/10 04:22:39;;;;;;;;;6.50;6.50;;;;;1.94;87.22;98694.66;5000484;28;11786;-68
2023/03/10 04:25:07;;;;;;;;;5.00;5.00;;;;;1.91;87.40;98697.72;4992771;28;11534;-67
2023/03/10 04:27:34;;;;;;;;;10.25;8.25;;;;;1.91;87.38;98696.88;4994753;28;11561;-67
2023/03/10 04:30:03;;;;;;;;;3.75;3.75;;;;;1.91;87.40;98694.25;5013047;28;11491;-67
2023/03/10 04:32:33;;;;;;;;;6.00;6.00;;;;;1.94;86.93;98696.47;5010938;28;12519;-67
2023/03/10 04:35:01;;;;;;;;;5.75;5.75;;;;;1.97;87.32;98696.94;4990636;28;11545;-66
2023/03/10 04:37:28;;;;;;;;;7.50;6.00;;;;;2.06;87.63;98700.25;5004537;28;11524;-67
2023/03/10 04:39:56;;;;;;;;;3.75;3.75;;;;;2.11;87.18;98705.03;4997126;28;11664;-67
2023/03/10 04:42:22;;;;;;;;;9.00;7.00;;;;;2.05;86.42;98682.69;4994161;28;11534;-67
2023/03/10 04:44:50;;;;;;;;;4.50;3.00;;;;;2.02;86.44;98692.88;5005563;28;11492;-66
2023/03/10 04:47:17;;;;;;;;;6.00;4.50;;;;;1.98;86.44;98692.44;5008979;28;11576;-65
2023/03/10 04:49:44;;;;;;;;;8.00;5.00;;;;;1.96;86.34;98683.88;5003151;28;11494;-67
2023/03/10 04:52:13;;;;;;;;;4.00;4.00;;;;;1.98;87.24;98693.28;4990005;28;11652;-68
2023/03/10 04:54:39;;;;;;;;;9.25;6.00;;;;;2.00;87.23;98690.44;4989542;28;11571;-65
2023/03/10 04:57:06;;;;;;;;;6.25;6.25;;;;;2.02;86.83;98688.38;4999049;28;11606;-67
2023/03/10 04:59:32;;;;;;;;;6.25;5.50;;;;;2.04;87.34;98683.72;5011982;28;11574;-67
2023/03/10 05:01:59;;;;;;;;;5.25;5.25;;;;;1.97;86.91;98670.41;5006067;28;11613;-68
2023/03/10 05:04:26;;;;;;;;;4.00;3.00;;;;;1.90;86.40;98679.31;5012849;28;12319;-67
2023/03/10 05:06:54;;;;;;;;;3.25;3.00;;;;;1.90;86.46;98669.50;5012563;28;11542;-67
2023/03/10 05:09:33;;;;;;;;;6.75;4.75;;;;;1.90;87.10;98650.13;5007264;28;11513;-67
2023/03/10 05:12:00;;;;;;;;;5.00;5.00;;;;;1.96;87.34;98658.16;4996608;28;11528;-66
2023/03/10 05:14:30;;;;;;;;;6.50;6.00;;;;;1.94;86.87;98669.94;5019017;28;11518;-68
2023/03/10 05:16:56;;;;;;;;;3.50;3.00;;;;;1.90;86.54;98685.44;5012883;28;11560;-67
2023/03/10 05:19:23;;;;;;;;;7.00;5.00;;;;;1.92;86.64;98686.06;5008178;28;11507;-65
2023/03/10 05:21:52;;;;;;;;;4.00;4.00;;;;;1.95;87.02;98698.97;5004349;28;11537;-67
2023/03/10 05:24:19;;;;;;;;;6.50;4.25;;;;;1.97;87.08;98702.22;5020909;28;11645;-67
2023/03/10 05:26:45;;;;;;;;;3.75;3.00;;;;;1.93;86.57;98700.16;4999533;28;11537;-68
2023/03/10 05:29:12;;;;;;;;;8.00;5.50;;;;;1.88;86.37;98695.44;5011098;28;11509;-69
2023/03/10 05:31:44;;;;;;;;;4.00;4.00;;;;;1.90;86.86;98698.69;5011630;28;12363;-67
2023/03/10 05:34:17;;;;;;;;;6.00;6.00;;;;;1.96;86.82;98697.94;5000028;28;11797;-67
2023/03/10 05:36:45;;;;;;;;;7.25;5.00;;;;;1.97;86.41;98691.63;4993192;28;11696;-67
2023/03/10 05:39:14;;;;;;;;;6.00;5.75;;;;;2.02;86.37;98688.38;4997110;28;11677;-67
2023/03/10 05:41:44;;;;;;;;;9.00;3.75;;;;;2.02;86.33;98682.25;5017269;28;11499;-67
2023/03/10 05:44:11;;;;;;;;;8.00;6.50;;;;;1.98;86.13;98672.06;5003524;28;11544;-66
2023/03/10 05:46:38;;;;;;;;;7.75;4.00;;;;;1.96;86.57;98675.91;5018651;28;11538;-67
2023/03/10 05:49:05;;;;;;;;;4.00;4.00;;;;;2.02;86.81;98675.13;5010528;28;11521;-67
2023/03/10 05:51:32;;;;;;;;;5.75;5.75;;;;;2.04;86.77;98682.91;5000027;28;11528;-68
2023/03/10 05:54:00;;;;;;;;;3.50;3.00;;;;;2.04;86.58;98675.75;5006413;28;11664;-66
2023/03/10 05:56:28;;;;;;;;;3.00;3.00;;;;;1.97;86.16;98683.66;5009177;28;11528;-64
2023/03/10 05:58:58;;;;;;;;;6.00;5.50;;;;;2.02;86.55;98687.56;5013993;28;11551;-68
2023/03/10 06:01:30;;;;;;;;;5.50;3.50;;;;;2.00;86.31;98676.34;5008002;28;12275;-66
2023/03/10 06:03:57;;;;;;;;;4.00;4.00;;;;;1.97;86.53;98673.03;4998437;28;12233;-67
2023/03/10 06:06:23;;;;;;;;;6.25;5.25;;;;;1.96;86.93;98687.34;5002268;28;11603;-66
2023/03/10 06:08:50;;;;;;;;;9.75;4.00;;;;;1.94;86.18;98672.59;5004071;28;11702;-66
2023/03/10 06:11:17;;;;;;;;;3.25;1.25;;;;;1.89;85.78;98681.16;5016219;28;11657;-66
2023/03/10 06:13:43;;;;;;;;;7.25;5.50;;;;;1.88;86.23;98676.03;5004467;28;11644;-67
2023/03/10 06:16:10;;;;;;;;;6.00;5.00;;;;;1.87;86.27;98680.53;5006355;28;11649;-66
2023/03/10 06:18:37;;;;;;;;;4.00;4.00;;;;;1.89;86.90;98678.50;4997881;28;11516;-67
2023/03/10 06:21:06;;;;;;;;;7.75;5.25;;;;;1.92;86.43;98683.41;4995431;28;11555;-65
2023/03/10 06:23:33;;;;;;;;;4.50;4.50;;;;;1.84;85.58;98683.56;5004323;28;11534;-66
2023/03/10 06:26:06;;;;;;;;;4.00;4.00;;;;;1.80;86.56;98682.31;5009701;28;11529;-66
2023/03/10 06:28:36;;;;;;;;;7.75;5.25;;;;;1.82;86.49;98674.97;5000779;28;12194;-66
2023/03/10 06:31:06;;;;;;;;;4.75;4.75;;;;;1.86;86.43;98678.06;5007978;28;11501;-66
2023/03/10 06:33:34;;;;;;;;;8.00;4.75;;;;;1.82;86.36;98666.19;4998957;28;11581;-67
2023/03/10 06:36:01;;;;;;;;;6.75;5.25;;;;;1.76;86.41;98666.97;4993254;28;11532;-67
2023/03/10 06:38:27;;;;;;;;;6.25;6.25;;;;;1.73;85.84;98668.16;5002300;28;11550;-67
2023/03/10 06:40:54;;;;;;;;;7.00;6.00;;;;;1.73;87.06;98665.50;5015419;28;11604;-66
2023/03/10 06:43:20;;;;;;;;;4.00;4.00;;;;;1.82;87.19;98668.84;4999596;28;11565;-65
2023/03/10 06:45:47;;;;;;;;;8.00;5.25;;;;;1.84;87.16;98659.69;4993362;28;11554;-66
2023/03/10 06:48:15;;;;;;;;;4.00;4.00;;;;;1.86;87.04;98672.75;4995976;28;11528;-67
2023/03/10 06:50:48;;;;;;;;;6.50;5.50;;;;;1.94;86.75;98670.78;5001684;28;11552;-67
2023/03/10 06:53:19;;;;;;;;;6.75;6.75;;;;;1.88;85.92;98673.38;5001181;28;11643;-66
2023/03/10 06:56:02;;;;;;;;;4.00;4.00;;;;;1.88;86.87;98674.22;4995241;28;11518;-66
2023/03/10 06:58:31;;;;;;;;;8.75;7.50;;;;;1.92;86.70;98685.25;5005948;28;11564;-66
2023/03/10 07:00:58;;;;;;;;;6.00;4.00;;;;;1.98;87.24;98680.03;4992309;28;11547;-67
2023/03/10 07:03:25;;;;;;;;;7.00;3.50;;;;;1.95;86.67;98688.34;4990872;28;11541;-66
2023/03/10 07:05:52;;;;;;;;;6.00;4.75;;;;;1.93;86.18;98678.94;5011070;28;12330;-67
2023/03/10 07:08:18;;;;;;;;;7.75;6.00;;;;;1.95;86.60;98683.03;5005789;28;11660;-66
2023/03/10 07:10:44;;;;;;;;;6.00;6.00;;;;;1.96;86.11;98692.63;5002354;28;11525;-66
2023/03/10 07:13:14;;;;;;;;;9.50;9.50;;;;;2.10;87.58;98687.44;5014994;28;11605;-67
2023/03/10 07:15:41;;;;;;;;;9.00;7.00;;;;;2.09;87.17;98694.56;4996857;28;11514;-71
2023/03/10 07:18:07;;;;;;;;;7.00;7.00;;;;;2.18;86.94;98698.72;5003785;28;11552;-66
2023/03/10 07:20:34;;;;;;;;;9.50;6.00;;;;;2.13;86.93;98698.47;5004988;28;11628;-67
2023/03/10 07:23:01;;;;;;;;;10.75;6.00;;;;;2.18;87.02;98711.16;5004656;28;11603;-67
2023/03/10 07:25:27;;;;;;;;;5.00;4.00;;;;;2.18;86.16;98706.69;5019276;28;11621;-65
2023/03/10 07:27:54;;;;;;;;;5.50;5.00;;;;;2.21;86.49;98708.13;4996273;28;11579;-65
2023/03/10 07:30:20;;;;;;;;;3.25;3.25;;;;;2.20;86.89;98711.81;5020507;28;11543;-68
2023/03/10 07:32:51;;;;;;;;;6.50;4.75;;;;;2.22;86.53;98704.47;5010501;28;11565;-66
2023/03/10 07:35:18;;;;;;;;;5.00;5.00;;;;;2.16;86.06;98711.38;5018349;28;11510;-67
2023/03/10 07:37:45;;;;;;;;;7.25;5.25;;;;;2.15;86.40;98709.75;5010116;28;11536;-67
2023/03/10 07:40:11;;;;;;;;;5.50;4.00;;;;;2.17;86.34;98720.16;5007110;28;11502;-67
2023/03/10 07:42:38;;;;;;;;;6.00;3.75;;;;;2.21;86.25;98724.06;5022417;28;11502;-67
2023/03/10 07:45:04;;;;;;;;;4.00;4.00;;;;;2.18;85.77;98729.75;5011759;28;11696;-66
2023/03/10 07:47:31;;;;;;;;;6.75;6.75;;;;;2.12;86.25;98723.38;5010716;28;11556;-67
2023/03/10 07:49:57;;;;;;;;;6.00;6.00;;;;;2.13;85.92;98725.03;4993928;28;11528;-67
2023/03/10 07:52:24;;;;;;;;;7.00;7.00;;;;;2.10;85.58;98721.94;4998265;28;11675;-67
2023/03/10 07:54:50;;;;;;;;;6.00;6.00;;;;;2.02;85.55;98725.53;5015066;28;11527;-66
2023/03/10 07:57:17;;;;;;;;;11.25;10.00;;;;;2.07;86.48;98727.66;5010511;28;11523;-68
2023/03/10 07:59:43;;;;;;;;;6.75;6.75;;;;;2.11;86.38;98729.72;5009512;28;11571;-68
2023/03/10 08:02:13;;;;;;;;;7.00;7.00;;;;;2.13;86.86;98726.84;5010832;28;12357;-67
2023/03/10 08:04:40;;;;;;;;;10.00;8.25;;;;;2.15;86.33;98730.97;5019864;28;11511;-67
2023/03/10 08:07:08;;;;;;;;;5.50;5.00;;;;;2.12;87.02;98725.22;5018697;28;12391;-68
2023/03/10 08:09:34;;;;;;;;;6.00;4.00;;;;;2.12;87.08;98731.34;5013654;28;12203;-67
2023/03/10 08:12:02;;;;;;;;;13.00;7.50;;;;;2.16;86.80;98737.91;5009219;28;11607;-66
2023/03/10 08:14:30;;;;;;;;;6.00;4.00;;;;;2.14;86.66;98733.81;4998118;28;11540;-67
2023/03/10 08:16:57;;;;;;;;;4.25;4.25;;;;;2.11;86.34;98731.56;5015937;28;11657;-67
2023/03/10 08:19:25;;;;;;;;;6.50;4.75;;;;;2.12;86.46;98741.97;5012043;28;12220;-67
2023/03/10 08:21:56;;;;;;;;;8.25;5.25;;;;;2.13;86.48;98737.47;5022246;28;12202;-67
2023/03/10 08:24:24;;;;;;;;;7.00;5.25;;;;;2.07;86.45;98744.38;5017355;28;11636;-67
2023/03/10 08:26:50;;;;;;;;;6.50;3.75;;;;;2.07;86.76;98741.72;5018919;28;11534;-67
2023/03/10 08:29:17;;;;;;;;;6.75;5.25;;;;;2.02;86.81;98744.09;5012938;28;11573;-67
2023/03/10 08:31:43;;;;;;;;;6.25;4.50;;;;;2.07;87.01;98748.88;4999261;28;11532;-68
2023/03/10 08:34:11;;;;;;;;;7.00;6.00;;;;;2.09;86.82;98742.34;5006388;28;12311;-67
2023/03/10 08:36:38;;;;;;;;;14.00;9.75;;;;;2.11;86.90;98753.59;5025523;28;11625;-66
2023/03/10 08:39:07;;;;;;;;;6.75;5.75;;;;;2.10;86.71;98751.94;5023444;28;11599;-67
2023/03/10 08:41:43;;;;;;;;;9.50;7.50;;;;;2.12;86.68;98763.19;5021899;28;11498;-67
2023/03/10 08:44:14;;;;;;;;;9.50;9.50;;;;;2.17;86.85;98765.28;5013539;28;11663;-66
2023/03/10 08:46:42;;;;;;;;;8.50;8.50;;;;;2.10;86.71;98757.25;5014130;28;12389;-67
2023/03/10 08:49:13;;;;;;;;;9.25;7.00;;;;;2.09;86.60;98744.19;5006633;28;11541;-68
2023/03/10 08:51:40;;;;;;;;;4.00;4.00;;;;;2.05;87.18;98758.84;5022518;28;11625;-67
2023/03/10 08:54:07;;;;;;;;;3.75;3.75;;;;;2.08;86.92;98761.94;5016651;28;11541;-65
2023/03/10 08:56:33;;;;;;;;;13.00;7.25;;;;;2.06;86.66;98766.59;5018973;28;11605;-66
2023/03/10 08:59:00;;;;;;;;;7.00;5.25;;;;;2.04;86.82;98768.63;5017281;28;11594;-66
2023/03/10 09:01:30;;;;;;;;;7.75;6.00;;;;;1.94;86.87;98765.47;5011933;28;11631;-66
2023/03/10 09:03:57;;;;;;;;;3.00;3.00;;;;;2.00;86.75;98766.56;5013723;28;11553;-66
2023/03/10 09:06:23;;;;;;;;;3.50;3.00;;;;;1.97;86.76;98767.75;5013646;28;11547;-67
2023/03/10 09:08:51;;;;;;;;;6.75;4.25;;;;;2.05;87.08;98764.16;5010249;28;11516;-67
2023/03/10 09:11:22;;;;;;;;;5.00;3.00;;;;;2.00;86.80;98766.56;5018092;28;11497;-66
2023/03/10 09:13:49;;;;;;;;;6.50;6.00;;;;;2.00;86.71;98772.69;5012929;28;11599;-66
2023/03/10 09:16:15;;;;;;;;;5.00;5.00;;;;;2.00;86.85;98767.38;5003804;28;11560;-67
2023/03/10 09:18:42;;;;;;;;;4.00;4.00;;;;;2.02;87.01;98777.78;5009924;28;11629;-67
2023/03/10 09:21:12;;;;;;;;;10.50;4.00;;;;;1.95;86.84;98791.00;5018373;28;11521;-65
2023/03/10 09:23:44;;;;;;;;;6.00;6.00;;;;;2.04;87.35;98789.88;5017506;28;11557;-67
2023/03/10 09:26:11;;;;;;;;;6.00;3.00;;;;;2.11;86.99;98788.09;5018759;28;11544;-67
2023/03/10 09:28:37;;;;;;;;;4.00;3.75;;;;;2.10;86.30;98785.63;5012059;28;11755;-67
2023/03/10 09:31:05;;;;;;;;;2.50;2.50;;;;;2.05;86.66;98778.22;5015965;28;11511;-66
2023/03/10 09:33:31;;;;;;;;;5.25;5.25;;;;;2.03;86.85;98782.09;5018969;28;11615;-66
2023/03/10 09:35:58;;;;;;;;;2.00;2.00;;;;;2.03;86.73;98780.28;5012490;28;11518;-66
2023/03/10 09:38:34;;;;;;;;;9.00;5.25;;;;;2.06;87.00;98779.88;5001845;28;11582;-65
2023/03/10 09:41:21;;;;;;;;;3.50;2.25;;;;;2.08;87.08;98790.31;5024441;28;11485;-67
2023/03/10 09:43:58;;;;;;;;;4.00;3.00;;;;;2.07;86.48;98802.75;5024665;28;11651;-67
2023/03/10 09:46:37;;;;;;;;;2.25;2.25;;;;;2.07;87.12;98816.03;5020174;28;11523;-67
2023/03/10 09:49:13;;;;;;;;;3.50;1.00;;;;;2.10;87.02;98812.16;5002262;28;11527;-66
2023/03/10 09:51:44;;;;;;;;;2.00;2.00;;;;;2.08;86.71;98814.19;5013291;28;11649;-68
2023/03/10 09:54:42;;;;;;;;;4.50;4.00;;;;;2.01;87.02;98808.00;4997427;28;11562;-69
2023/03/10 09:57:15;;;;;;;;;3.75;2.25;;;;;2.05;87.47;98814.56;5015414;28;11511;-67
2023/03/10 09:59:44;;;;;;;;;1.50;1.50;;;;;2.12;87.53;98826.06;4997835;28;11646;-67
2023/03/10 10:02:19;;;;;;;;;5.50;4.00;;;;;2.17;87.57;98839.59;4993092;28;11832;-67
2023/03/10 10:04:51;;;;;;;;;6.50;4.50;;;;;2.11;86.98;98845.66;5007467;28;12206;-67
2023/03/10 10:07:26;;;;;;;;;4.00;2.25;;;;;2.05;86.92;98835.78;5006397;28;11580;-65
2023/03/10 10:10:12;;;;;;;;;2.00;2.00;;;;;2.01;87.20;98829.22;5024345;28;11512;-67
2023/03/10 10:12:41;;;;;;;;;6.25;3.50;;;;;1.95;87.46;98836.13;5010116;28;11638;-66
2023/03/10 10:15:17;;;;;;;;;4.00;4.00;;;;;1.97;87.22;98832.25;5016923;28;11564;-66
2023/03/10 10:18:04;;;;;;;;;5.75;5.75;;;;;1.92;87.59;98836.47;4992968;28;11528;-66
2023/03/10 10:20:58;;;;;;;;;3.00;1.00;;;;;1.92;87.83;98847.91;4993044;28;11630;-67
2023/03/10 10:23:44;;;;;;;;;7.00;4.00;;;;;1.96;88.09;98853.66;5002010;28;11554;-65
2023/03/10 10:26:14;;;;;;;;;5.50;3.75;;;;;2.01;87.88;98845.97;5014902;28;11549;-65
2023/03/10 10:28:45;;;;;;;;;6.00;6.00;;;;;2.04;87.49;98850.09;5011423;28;11534;-67
2023/03/10 10:31:18;;;;;;;;;6.50;4.00;;;;;2.08;87.55;98856.66;5010541;28;11535;-67
2023/03/10 10:34:00;;;;;;;;;7.75;7.50;;;;;2.09;87.92;98863.59;5006621;28;11577;-67
2023/03/10 10:36:35;;;;;;;;;6.25;4.50;;;;;2.09;87.73;98869.72;5009454;28;11504;-67
2023/03/10 10:39:18;;;;;;;;;8.00;4.50;;;;;2.04;87.61;98863.34;5015284;28;11519;-67
2023/03/10 10:41:45;;;;;;;;;5.00;5.00;;;;;2.00;86.95;98867.38;5016941;28;11523;-66
2023/03/10 10:44:16;;;;;;;;;4.00;4.00;;;;;1.97;87.04;98872.03;5014868;28;11664;-67
2023/03/10 10:46:51;;;;;;;;;12.50;5.50;;;;;1.90;86.87;98876.44;5005810;28;11516;-67
2023/03/10 10:49:26;;;;;;;;;7.25;7.25;;;;;1.91;87.41;98877.31;5012555;28;11643;-66
2023/03/10 10:51:57;;;;;;;;;8.25;8.25;;;;;1.92;87.55;98884.25;5012199;28;11549;-66
2023/03/10 10:54:28;;;;;;;;;10.50;6.50;;;;;1.84;87.60;98890.47;5010219;28;11537;-67
2023/03/10 10:56:59;;;;;;;;;12.50;7.00;;;;;1.82;87.97;98879.22;5011680;28;11694;-68
2023/03/10 10:59:29;;;;;;;;;7.00;6.25;;;;;1.85;87.40;98901.91;5000824;28;12291;-66
2023/03/10 11:01:58;;;;;;;;;9.50;7.50;;;;;1.87;87.53;98898.06;5012458;28;11586;-66
2023/03/10 11:04:28;;;;;;;;;10.50;7.00;;;;;1.89;87.54;98892.56;5012126;28;11533;-66
2023/03/10 11:07:09;;;;;;;;;7.50;5.75;;;;;1.83;87.50;98910.06;5015408;28;12311;-67
2023/03/10 11:09:37;;;;;;;;;6.00;5.50;;;;;1.86;87.23;98888.44;5013932;28;11527;-66
2023/03/10 11:12:43;;;;;;;;;13.00;9.00;;;;;1.91;87.27;98890.56;5024828;28;11526;-66
2023/03/10 11:15:20;;;;;;;;;3.50;3.50;;;;;1.85;87.04;98883.34;5002346;28;11589;-67
2023/03/10 11:18:13;;;;;;;;;12.00;4.25;;;;;1.83;87.43;98888.84;5006818;28;11480;-67
2023/03/10 11:21:02;;;;;;;;;7.00;6.00;;;;;1.87;87.48;98886.63;5008041;28;11526;-67
2023/03/10 11:24:00;;;;;;;;;7.00;7.00;;;;;1.89;87.54;98896.03;5017071;28;11688;-67
2023/03/10 11:26:47;;;;;;;;;7.25;5.50;;;;;1.90;87.98;98886.25;5002553;28;11665;-66
2023/03/10 11:29:23;;;;;;;;;9.75;5.50;;;;;1.94;87.92;98890.97;5020893;28;11508;-67
2023/03/10 11:32:20;;;;;;;;;4.50;3.75;;;;;1.93;87.81;98868.13;5009949;28;11640;-67
2023/03/10 11:34:49;;;;;;;;;6.00;6.00;;;;;1.94;88.16;98888.34;5015123;28;11525;-67
2023/03/10 11:37:25;;;;;;;;;10.00;7.00;;;;;1.94;87.81;98879.56;5026365;28;11504;-64
2023/03/10 11:40:14;;;;;;;;;6.75;6.75;;;;;1.95;87.34;98867.94;5013026;28;11670;-62
2023/03/10 11:42:47;;;;;;;;;9.50;9.00;;;;;1.98;87.68;98871.06;5019962;28;11533;-65
2023/03/10 11:45:35;;;;;;;;;6.25;5.50;;;;;2.01;87.48;98877.81;5009311;28;11558;-65
2023/03/10 11:48:40;;;;;;;;;7.50;5.50;;;;;2.02;87.66;98879.44;5001506;28;11632;-63
2023/03/10 11:51:38;;;;;;;;;4.00;3.25;;;;;2.04;87.42;98892.53;5018922;28;11635;-64
2023/03/10 11:54:21;;;;;;;;;3.00;3.00;;;;;1.98;87.40;98871.06;5019552;28;12266;-64
2023/03/10 11:56:52;;;;;;;;;8.50;7.50;;;;;1.98;87.01;98886.97;5009267;28;12258;-64